Time;durP1;ratioP1;P1;durP2;ratioP2;P2;SDS_P1;SDS_P2;PMS_P1;PMS_P2;Temp;Humidity;BMP_temperature;BMP_pressure;BME280_temperature;BME280_humidity;BME280_pressure;Samples;Min_cycle;Max_cycle;Signal;HPM_P1;HPM_P2
2021/07/08 00:02:00;;;;;;;4.20;2.97;;;17.30;99.90;;;;;;5051820;28;20523;-66
2021/07/08 00:04:26;;;;;;;4.00;2.97;;;17.30;99.90;;;;;;5051649;28;20993;-65
2021/07/08 00:06:53;;;;;;;4.87;3.37;;;17.30;99.90;;;;;;5051359;28;20543;-68
2021/07/08 00:09:22;;;;;;;4.77;3.07;;;17.30;99.90;;;;;;5050925;28;20476;-66
2021/07/08 00:11:49;;;;;;;3.80;3.37;;;17.20;99.90;;;;;;5051774;28;20526;-66
2021/07/08 00:14:15;;;;;;;5.50;3.83;;;17.20;99.90;;;;;;5051946;28;20836;-69
2021/07/08 00:16:42;;;;;;;5.10;3.60;;;17.10;99.90;;;;;;5051219;28;20542;-66
2021/07/08 00:19:09;;;;;;;5.70;3.60;;;17.10;99.90;;;;;;5051257;28;20444;-66
2021/07/08 00:21:37;;;;;;;4.87;3.87;;;17.10;99.90;;;;;;5051958;28;20463;-67
2021/07/08 00:24:05;;;;;;;6.73;3.70;;;17.10;99.90;;;;;;5051927;28;20452;-66
2021/07/08 00:26:34;;;;;;;5.73;3.57;;;17.10;99.90;;;;;;5051355;28;20453;-66
2021/07/08 00:29:01;;;;;;;7.80;3.83;;;17.10;99.90;;;;;;5050841;28;20484;-67
2021/07/08 00:31:28;;;;;;;4.57;3.47;;;17.10;99.90;;;;;;5051374;28;20456;-66
2021/07/08 00:33:55;;;;;;;6.57;3.30;;;17.10;99.90;;;;;;5051461;28;20475;-66
2021/07/08 00:36:21;;;;;;;4.20;3.40;;;17.10;99.90;;;;;;5051003;28;20539;-66
2021/07/08 00:38:48;;;;;;;4.90;2.73;;;17.10;99.90;;;;;;5050807;28;21119;-66
2021/07/08 00:41:15;;;;;;;4.47;3.77;;;17.10;99.90;;;;;;5050287;28;20562;-66
2021/07/08 00:43:45;;;;;;;5.20;3.33;;;17.10;99.90;;;;;;5051079;28;20547;-66
2021/07/08 00:46:12;;;;;;;4.37;3.07;;;17.10;99.90;;;;;;5050269;28;20941;-66
2021/07/08 00:48:38;;;;;;;4.60;2.80;;;17.10;99.90;;;;;;5049611;28;20494;-67
2021/07/08 00:51:05;;;;;;;6.93;3.53;;;17.10;99.90;;;;;;5050178;28;20468;-66
2021/07/08 00:53:32;;;;;;;5.43;2.90;;;17.20;99.90;;;;;;5051063;28;20451;-66
2021/07/08 00:56:03;;;;;;;3.90;3.03;;;17.20;99.90;;;;;;5050305;28;20448;-66
2021/07/08 00:58:30;;;;;;;5.20;3.30;;;17.10;99.90;;;;;;5050835;28;20506;-66
2021/07/08 01:00:58;;;;;;;7.00;3.30;;;17.10;99.90;;;;;;5049869;28;20555;-66
2021/07/08 01:03:26;;;;;;;4.30;2.60;;;17.20;99.90;;;;;;5050876;28;20531;-66
2021/07/08 01:05:55;;;;;;;7.40;2.90;;;17.30;99.90;;;;;;5050465;28;20447;-67
2021/07/08 01:08:22;;;;;;;4.93;2.80;;;17.20;99.90;;;;;;5050503;28;21154;-66
2021/07/08 01:10:51;;;;;;;7.30;4.00;;;17.20;99.90;;;;;;5049696;28;20464;-68
2021/07/08 01:13:20;;;;;;;4.50;3.50;;;17.20;99.90;;;;;;5050356;28;20450;-67
2021/07/08 01:15:47;;;;;;;5.40;3.53;;;17.10;99.90;;;;;;5050285;28;20443;-66
2021/07/08 01:18:15;;;;;;;5.47;3.40;;;17.10;99.90;;;;;;5050098;28;20855;-66
2021/07/08 01:20:44;;;;;;;6.20;3.57;;;17.20;99.90;;;;;;5049859;28;20477;-67
2021/07/08 01:23:13;;;;;;;9.07;4.93;;;17.20;99.90;;;;;;5050527;28;20854;-66
2021/07/08 01:25:42;;;;;;;5.83;3.70;;;17.10;99.90;;;;;;5050422;28;20534;-67
2021/07/08 01:28:10;;;;;;;5.13;3.70;;;17.00;99.90;;;;;;5049712;28;20869;-66
2021/07/08 01:30:38;;;;;;;5.47;3.90;;;17.10;99.90;;;;;;5049583;28;20448;-67
2021/07/08 01:33:06;;;;;;;5.73;3.67;;;17.00;99.90;;;;;;5050303;28;20546;-66
2021/07/08 01:35:33;;;;;;;5.90;3.77;;;17.10;99.90;;;;;;5050321;28;20581;-65
2021/07/08 01:38:00;;;;;;;4.50;3.60;;;17.10;99.90;;;;;;5049938;28;20444;-65
2021/07/08 01:40:28;;;;;;;4.63;3.33;;;17.10;99.90;;;;;;5049237;28;20551;-66
2021/07/08 01:42:55;;;;;;;7.03;4.20;;;17.10;99.90;;;;;;5049782;28;20981;-65
2021/07/08 01:45:22;;;;;;;6.93;3.50;;;17.20;99.90;;;;;;5050095;28;20470;-67
2021/07/08 01:47:49;;;;;;;6.17;3.23;;;17.20;99.90;;;;;;5049317;28;21038;-65
2021/07/08 01:50:19;;;;;;;4.10;3.13;;;17.30;99.90;;;;;;5049046;28;20486;-66
2021/07/08 01:52:47;;;;;;;5.97;3.93;;;17.30;99.90;;;;;;5049418;28;20591;-67
2021/07/08 01:55:14;;;;;;;6.03;3.50;;;17.30;99.90;;;;;;5049639;28;21063;-65
2021/07/08 01:57:44;;;;;;;5.73;3.17;;;17.30;99.90;;;;;;5049424;28;20455;-65
2021/07/08 02:00:12;;;;;;;7.73;3.33;;;17.30;99.90;;;;;;5048608;28;20444;-65
2021/07/08 02:02:40;;;;;;;4.10;3.03;;;17.30;99.90;;;;;;5049754;28;20475;-65
2021/07/08 02:05:08;;;;;;;6.70;3.87;;;17.20;99.90;;;;;;5049731;28;20459;-65
2021/07/08 02:07:35;;;;;;;5.17;3.43;;;17.20;99.90;;;;;;5049178;28;20454;-66
2021/07/08 02:10:03;;;;;;;4.30;3.50;;;17.20;99.90;;;;;;5048657;28;20475;-65
2021/07/08 02:12:29;;;;;;;5.90;3.50;;;17.10;99.90;;;;;;5049590;28;20468;-65
2021/07/08 02:14:58;;;;;;;5.90;3.50;;;17.10;99.90;;;;;;5049706;28;21005;-66
2021/07/08 02:17:24;;;;;;;6.93;3.80;;;17.00;99.90;;;;;;5049719;28;20817;-65
2021/07/08 02:19:51;;;;;;;6.93;4.13;;;17.10;99.90;;;;;;5048770;28;20847;-66
2021/07/08 02:22:18;;;;;;;5.00;4.50;;;17.00;99.90;;;;;;5049445;28;20839;-65
2021/07/08 02:24:45;;;;;;;8.43;4.50;;;16.90;99.90;;;;;;5049274;28;20456;-67
2021/07/08 02:27:12;;;;;;;8.67;5.43;;;16.90;99.90;;;;;;5048909;28;21029;-65
2021/07/08 02:29:39;;;;;;;6.40;4.30;;;16.80;99.90;;;;;;5048521;28;20484;-66
2021/07/08 02:32:08;;;;;;;6.53;4.30;;;16.80;99.90;;;;;;5049394;28;20474;-65
2021/07/08 02:34:37;;;;;;;4.87;3.93;;;16.80;99.90;;;;;;5049706;28;20448;-66
2021/07/08 02:37:04;;;;;;;6.10;4.30;;;16.80;99.90;;;;;;5048640;28;20539;-67
2021/07/08 02:39:31;;;;;;;9.57;4.37;;;16.90;99.90;;;;;;5048384;28;20452;-68
2021/07/08 02:41:58;;;;;;;8.13;4.50;;;16.80;99.90;;;;;;5049256;28;20554;-65
2021/07/08 02:44:25;;;;;;;5.50;4.40;;;16.80;99.90;;;;;;5049419;28;20535;-65
2021/07/08 02:46:52;;;;;;;6.90;4.30;;;16.80;99.90;;;;;;5048713;28;20451;-66
2021/07/08 02:49:20;;;;;;;5.13;3.90;;;16.80;99.90;;;;;;5048258;28;20571;-65
2021/07/08 02:51:47;;;;;;;6.93;4.80;;;16.80;99.90;;;;;;5048796;28;20476;-65
2021/07/08 02:54:14;;;;;;;5.00;4.53;;;16.80;99.90;;;;;;5049354;28;20462;-67
2021/07/08 02:56:41;;;;;;;5.73;4.30;;;16.80;99.90;;;;;;5048605;28;20809;-67
2021/07/08 02:59:08;;;;;;;5.50;4.37;;;16.80;99.90;;;;;;5048313;28;20467;-66
2021/07/08 03:01:35;;;;;;;5.57;4.97;;;16.80;99.90;;;;;;5049061;28;20575;-65
2021/07/08 03:04:01;;;;;;;7.10;4.93;;;16.90;99.90;;;;;;5049254;28;20463;-67
2021/07/08 03:06:30;;;;;;;6.73;4.90;;;16.90;99.90;;;;;;5052467;28;20452;-65
2021/07/08 03:08:56;;;;;;;6.70;5.37;;;16.90;99.90;;;;;;5052268;28;20523;-65
2021/07/08 03:11:23;;;;;;;5.63;5.13;;;16.90;99.90;;;;;;5052669;28;20555;-68
2021/07/08 03:13:50;;;;;;;5.00;4.50;;;16.80;99.90;;;;;;5052772;28;20834;-67
2021/07/08 03:16:19;;;;;;;9.47;5.53;;;16.80;99.90;;;;;;5052339;28;20542;-64
2021/07/08 03:18:45;;;;;;;7.77;5.43;;;16.80;99.90;;;;;;5052344;28;20444;-67
2021/07/08 03:21:12;;;;;;;5.87;5.07;;;16.80;99.90;;;;;;5051820;28;20478;-66
2021/07/08 03:23:40;;;;;;;7.10;5.97;;;16.80;99.90;;;;;;5052367;28;20618;-65
2021/07/08 03:26:07;;;;;;;7.60;6.60;;;16.80;99.90;;;;;;5052049;28;20555;-65
2021/07/08 03:28:34;;;;;;;11.70;5.87;;;16.80;99.90;;;;;;5052247;28;20960;-67
2021/07/08 03:31:01;;;;;;;9.70;5.70;;;16.70;99.90;;;;;;5051288;28;20483;-67
2021/07/08 03:33:28;;;;;;;7.10;5.60;;;16.70;99.90;;;;;;5052281;28;20491;-66
2021/07/08 03:35:54;;;;;;;8.77;6.17;;;16.70;99.90;;;;;;5051976;28;20535;-68
2021/07/08 03:38:21;;;;;;;6.50;5.73;;;16.80;99.90;;;;;;5051926;28;20452;-65
2021/07/08 03:40:49;;;;;;;6.33;5.57;;;16.70;99.90;;;;;;5051079;28;20471;-66
2021/07/08 03:43:16;;;;;;;8.10;5.50;;;16.80;99.90;;;;;;5052044;28;20535;-65
2021/07/08 03:45:43;;;;;;;7.33;6.63;;;16.80;99.90;;;;;;5052238;28;20443;-67
2021/07/08 03:48:10;;;;;;;6.90;6.20;;;16.80;99.90;;;;;;5051636;28;20455;-65
2021/07/08 03:50:36;;;;;;;7.23;5.53;;;16.80;99.90;;;;;;5050989;28;20479;-66
2021/07/08 03:53:04;;;;;;;6.90;6.20;;;16.80;99.90;;;;;;5052113;28;20448;-67
2021/07/08 03:55:30;;;;;;;8.00;5.83;;;16.80;99.90;;;;;;5051777;28;20963;-65
2021/07/08 03:57:59;;;;;;;6.97;5.83;;;16.80;99.90;;;;;;5051947;28;20548;-67
2021/07/08 04:00:28;;;;;;;8.07;7.33;;;16.70;99.90;;;;;;5051096;28;20436;-68
2021/07/08 04:02:56;;;;;;;8.70;6.93;;;16.70;99.90;;;;;;5052173;28;20534;-66
2021/07/08 04:05:23;;;;;;;7.00;6.30;;;16.70;99.90;;;;;;5052042;28;20454;-66
2021/07/08 04:07:50;;;;;;;11.57;6.20;;;16.70;99.90;;;;;;5051620;28;20470;-66
2021/07/08 04:10:17;;;;;;;6.67;5.67;;;16.70;99.90;;;;;;5050637;28;20479;-66
2021/07/08 04:12:44;;;;;;;7.03;6.20;;;16.70;99.90;;;;;;5051667;28;20997;-67
2021/07/08 04:15:13;;;;;;;11.07;7.13;;;16.70;99.90;;;;;;5050880;28;20456;-66
2021/07/08 04:17:40;;;;;;;7.10;6.20;;;16.70;99.90;;;;;;5051201;28;20447;-66
2021/07/08 04:20:08;;;;;;;9.73;6.60;;;16.80;99.90;;;;;;5050832;28;20506;-67
2021/07/08 04:22:35;;;;;;;7.20;5.80;;;16.80;99.90;;;;;;5051483;28;20562;-67
2021/07/08 04:25:03;;;;;;;8.23;6.13;;;16.90;99.90;;;;;;5051426;28;20456;-69
2021/07/08 04:27:30;;;;;;;8.40;6.00;;;17.00;99.90;;;;;;5050850;28;20448;-67
2021/07/08 04:29:57;;;;;;;6.93;6.20;;;17.00;99.90;;;;;;5050380;28;20553;-67
2021/07/08 04:32:25;;;;;;;8.60;6.90;;;17.00;99.90;;;;;;5051196;28;20908;-70
2021/07/08 04:34:52;;;;;;;8.50;6.07;;;17.00;99.90;;;;;;5051144;28;20444;-68
2021/07/08 04:37:18;;;;;;;8.40;5.70;;;17.00;99.90;;;;;;5045195;28;20447;-66
2021/07/08 04:39:45;;;;;;;8.63;7.13;;;17.10;99.90;;;;;;5048864;28;20496;-69
2021/07/08 04:42:12;;;;;;;10.77;6.27;;;17.00;99.90;;;;;;5047549;28;20495;-65
2021/07/08 04:44:39;;;;;;;9.07;7.07;;;17.10;99.90;;;;;;5050884;28;20939;-64
2021/07/08 04:47:06;;;;;;;8.20;6.73;;;17.10;99.90;;;;;;5050513;28;20807;-64
2021/07/08 04:49:35;;;;;;;6.97;6.27;;;17.20;99.90;;;;;;5049839;28;21016;-64
2021/07/08 04:52:02;;;;;;;9.83;6.00;;;17.20;99.90;;;;;;5051053;28;20472;-66
2021/07/08 04:54:29;;;;;;;6.80;5.93;;;17.30;99.90;;;;;;5050649;28;20539;-66
2021/07/08 04:56:56;;;;;;;9.07;5.67;;;17.30;99.90;;;;;;5050276;28;20460;-64
2021/07/08 04:59:23;;;;;;;8.37;6.40;;;17.30;99.90;;;;;;5049886;28;20480;-64
2021/07/08 05:01:49;;;;;;;8.93;5.70;;;17.30;99.90;;;;;;5045815;28;20498;-64
2021/07/08 05:04:16;;;;;;;8.70;6.50;;;17.30;99.90;;;;;;5042049;28;20962;-65
2021/07/08 05:06:45;;;;;;;9.80;5.20;;;17.30;99.90;;;;;;5045345;28;20463;-66
2021/07/08 05:09:11;;;;;;;8.73;5.33;;;17.40;99.90;;;;;;5045036;28;20456;-66
2021/07/08 05:11:38;;;;;;;6.30;5.17;;;17.40;99.90;;;;;;5049106;28;20491;-67
2021/07/08 05:14:05;;;;;;;6.33;5.10;;;17.50;99.90;;;;;;5050605;28;20448;-67
2021/07/08 05:16:32;;;;;;;8.17;5.00;;;17.50;99.90;;;;;;5049678;28;20976;-66
2021/07/08 05:18:59;;;;;;;6.87;5.47;;;17.70;99.90;;;;;;5049692;28;20535;-66
2021/07/08 05:21:25;;;;;;;7.67;4.80;;;17.70;99.90;;;;;;5048676;28;20486;-67
2021/07/08 05:23:58;;;;;;;9.03;6.10;;;17.70;99.90;;;;;;5049896;28;20456;-64
2021/07/08 05:26:27;;;;;;;10.00;6.17;;;17.80;99.90;;;;;;5048882;28;20451;-66
2021/07/08 05:28:54;;;;;;;8.10;5.50;;;17.90;99.90;;;;;;5049356;28;20451;-66
2021/07/08 05:31:21;;;;;;;8.07;5.00;;;17.90;99.90;;;;;;5049427;28;20483;-65
2021/07/08 05:33:47;;;;;;;9.20;5.70;;;17.90;99.90;;;;;;5050258;28;20531;-65
2021/07/08 05:36:14;;;;;;;6.73;4.60;;;17.90;99.90;;;;;;5049482;28;20828;-66
2021/07/08 05:38:41;;;;;;;6.40;5.33;;;18.00;99.90;;;;;;5049792;28;20539;-65
2021/07/08 05:41:09;;;;;;;7.57;4.10;;;18.10;99.90;;;;;;5049005;28;20559;-68
2021/07/08 05:43:37;;;;;;;8.00;5.00;;;18.10;99.90;;;;;;5050243;28;20454;-67
2021/07/08 05:46:03;;;;;;;7.87;5.07;;;18.10;99.90;;;;;;5049479;28;20455;-65
2021/07/08 05:48:30;;;;;;;6.73;5.00;;;18.10;99.90;;;;;;5050352;28;20458;-68
2021/07/08 05:50:57;;;;;;;8.27;5.53;;;18.10;99.90;;;;;;5048998;28;20565;-65
2021/07/08 05:53:25;;;;;;;6.73;4.53;;;18.10;99.90;;;;;;5050191;28;20869;-66
2021/07/08 05:55:51;;;;;;;7.67;4.53;;;18.10;99.90;;;;;;5049585;28;20517;-67
2021/07/08 05:58:20;;;;;;;7.00;4.50;;;18.10;99.90;;;;;;5049561;28;20547;-65
2021/07/08 06:00:47;;;;;;;8.13;5.10;;;18.00;99.90;;;;;;5049154;28;20444;-66
2021/07/08 06:03:14;;;;;;;5.63;5.00;;;18.00;99.90;;;;;;5049792;28;20495;-67
2021/07/08 06:05:41;;;;;;;6.17;4.90;;;18.00;99.90;;;;;;5049436;28;20452;-66
2021/07/08 06:08:08;;;;;;;7.03;5.10;;;18.00;99.90;;;;;;5049045;28;20898;-67
2021/07/08 06:10:35;;;;;;;6.70;5.67;;;18.00;99.90;;;;;;5048649;28;20476;-65
2021/07/08 06:13:02;;;;;;;6.67;5.07;;;18.00;99.90;;;;;;5049519;28;20447;-65
2021/07/08 06:15:31;;;;;;;7.80;5.73;;;18.00;99.90;;;;;;5049362;28;20444;-66
2021/07/08 06:17:58;;;;;;;8.07;7.27;;;18.10;99.90;;;;;;5048992;28;20484;-67
2021/07/08 06:20:25;;;;;;;9.60;6.37;;;18.10;99.90;;;;;;5048792;28;20447;-66
2021/07/08 06:22:52;;;;;;;12.90;8.30;;;18.20;99.90;;;;;;5049453;28;20506;-67
2021/07/08 06:25:20;;;;;;;8.07;7.20;;;18.30;99.90;;;;;;5049331;28;20448;-66
2021/07/08 06:27:47;;;;;;;8.73;6.90;;;18.40;99.90;;;;;;5049013;28;20474;-66
2021/07/08 06:30:15;;;;;;;7.77;6.27;;;18.50;99.90;;;;;;5048310;28;20475;-66
2021/07/08 06:32:44;;;;;;;10.13;6.50;;;18.70;99.90;;;;;;5049019;28;20478;-67
2021/07/08 06:35:13;;;;;;;7.27;5.47;;;18.80;99.90;;;;;;5049386;28;20495;-66
2021/07/08 06:37:40;;;;;;;8.57;6.43;;;18.90;99.90;;;;;;5049114;28;20509;-67
2021/07/08 06:40:09;;;;;;;8.50;5.90;;;19.00;99.90;;;;;;5052282;28;20554;-66
2021/07/08 06:42:36;;;;;;;7.90;5.87;;;19.10;99.90;;;;;;5053513;28;20471;-66
2021/07/08 06:45:05;;;;;;;6.20;5.60;;;19.10;99.90;;;;;;5053015;28;20439;-66
2021/07/08 06:47:38;;;;;;;10.27;6.63;;;19.20;99.90;;;;;;5051595;28;20542;-67
2021/07/08 06:50:07;;;;;;;6.73;5.90;;;19.20;99.90;;;;;;5052348;28;20468;-66
2021/07/08 06:52:34;;;;;;;9.40;6.53;;;19.20;99.90;;;;;;5053020;28;20474;-65
2021/07/08 06:55:01;;;;;;;8.10;6.50;;;19.20;99.90;;;;;;5052785;28;20436;-65
2021/07/08 06:57:28;;;;;;;7.23;5.63;;;19.20;99.90;;;;;;5052582;28;21057;-66
2021/07/08 06:59:55;;;;;;;10.60;6.47;;;19.20;99.90;;;;;;5052261;28;20444;-65
2021/07/08 07:02:22;;;;;;;6.50;5.50;;;19.30;99.90;;;;;;5052687;28;20468;-68
2021/07/08 07:04:49;;;;;;;6.73;6.03;;;19.30;99.90;;;;;;5053103;28;20473;-65
2021/07/08 07:07:17;;;;;;;7.93;5.87;;;19.40;99.90;;;;;;5052492;28;21017;-66
2021/07/08 07:09:44;;;;;;;6.73;6.03;;;19.30;99.90;;;;;;5051854;28;20814;-66
2021/07/08 07:12:11;;;;;;;7.43;6.00;;;19.30;99.90;;;;;;5052463;28;20494;-66
2021/07/08 07:14:38;;;;;;;6.90;5.83;;;19.40;99.90;;;;;;5052850;28;21031;-66
2021/07/08 07:17:05;;;;;;;5.97;5.37;;;19.40;99.90;;;;;;5052267;28;20454;-67
2021/07/08 07:19:32;;;;;;;8.33;6.20;;;19.50;99.90;;;;;;5051777;28;20451;-67
2021/07/08 07:22:00;;;;;;;7.00;5.67;;;19.60;99.90;;;;;;5051938;28;20466;-67
2021/07/08 07:24:29;;;;;;;8.20;5.93;;;19.70;99.90;;;;;;5052564;28;20550;-67
2021/07/08 07:26:56;;;;;;;9.80;6.87;;;19.80;99.90;;;;;;5052508;28;20505;-66
2021/07/08 07:29:22;;;;;;;7.40;5.70;;;20.00;99.90;;;;;;5051786;28;20530;-66
2021/07/08 07:31:49;;;;;;;8.90;6.00;;;20.10;99.90;;;;;;5052384;28;20484;-66
2021/07/08 07:34:16;;;;;;;9.10;6.00;;;20.00;99.90;;;;;;5052441;28;20523;-66
2021/07/08 07:36:43;;;;;;;12.47;7.10;;;20.10;99.90;;;;;;5051984;28;20542;-65
2021/07/08 07:39:10;;;;;;;7.03;6.33;;;20.00;99.90;;;;;;5051690;28;20478;-69
2021/07/08 07:41:38;;;;;;;7.47;6.67;;;20.00;99.90;;;;;;5052166;28;21273;-66
2021/07/08 07:44:05;;;;;;;7.17;6.03;;;20.00;99.90;;;;;;5052623;28;20450;-66
2021/07/08 07:46:33;;;;;;;7.83;6.20;;;20.20;99.90;;;;;;5051748;28;20459;-68
2021/07/08 07:49:00;;;;;;;10.13;7.07;;;20.30;99.90;;;;;;5051834;28;20460;-68
2021/07/08 07:51:27;;;;;;;9.47;6.70;;;20.30;99.90;;;;;;5050917;28;21088;-67
2021/07/08 07:53:54;;;;;;;8.30;7.50;;;20.40;99.90;;;;;;5052396;28;21105;-67
2021/07/08 07:56:21;;;;;;;9.40;7.47;;;20.60;99.90;;;;;;5051819;28;20539;-67
2021/07/08 07:58:49;;;;;;;8.70;6.93;;;20.70;99.90;;;;;;5052164;28;20555;-65
2021/07/08 08:01:16;;;;;;;9.63;7.20;;;20.80;99.90;;;;;;5051506;28;21040;-66
2021/07/08 08:03:43;;;;;;;6.83;6.03;;;20.80;99.90;;;;;;5052293;28;20535;-68
2021/07/08 08:08:54;;;;;;;6.00;5.40;;;21.40;99.90;;;;;;5051719;28;20478;-66
2021/07/08 08:11:21;;;;;;;7.60;5.63;;;21.90;99.90;;;;;;5051063;28;20574;-67
2021/07/08 08:13:50;;;;;;;5.73;5.10;;;22.10;99.90;;;;;;5051682;28;20839;-66
2021/07/08 08:16:17;;;;;;;5.80;5.30;;;22.40;99.90;;;;;;5051422;28;20891;-67
2021/07/08 08:18:44;;;;;;;6.20;5.10;;;22.60;99.90;;;;;;5051813;28;20531;-66
2021/07/08 08:21:11;;;;;;;11.77;5.97;;;22.70;99.90;;;;;;5050856;28;20514;-67
2021/07/08 08:23:38;;;;;;;6.87;5.80;;;22.60;99.90;;;;;;5051554;28;21065;-66
2021/07/08 08:26:05;;;;;;;8.70;6.10;;;22.50;99.90;;;;;;5050941;28;20498;-64
2021/07/08 08:28:32;;;;;;;6.73;5.00;;;22.20;99.90;;;;;;5051104;28;20455;-67
2021/07/08 08:31:00;;;;;;;6.80;5.30;;;22.20;99.90;;;;;;5050129;28;20480;-65
2021/07/08 08:33:27;;;;;;;5.93;5.20;;;22.40;99.90;;;;;;5051233;28;20853;-66
2021/07/08 08:35:54;;;;;;;6.13;4.77;;;22.70;99.90;;;;;;5051097;28;20804;-67
2021/07/08 08:38:21;;;;;;;7.07;5.97;;;23.10;99.90;;;;;;5051004;28;20451;-65
2021/07/08 08:40:49;;;;;;;7.27;5.40;;;23.20;99.90;;;;;;5049992;28;20491;-66
2021/07/08 08:43:17;;;;;;;5.77;5.13;;;23.50;99.90;;;;;;5051112;28;20479;-67
2021/07/08 08:45:46;;;;;;;7.27;5.70;;;23.60;99.90;;;;;;5050820;28;20484;-65
2021/07/08 08:48:15;;;;;;;5.93;5.30;;;23.80;99.90;;;;;;5050769;28;20452;-65
2021/07/08 08:50:44;;;;;;;6.57;5.33;;;24.00;99.90;;;;;;5050216;28;20479;-68
2021/07/08 08:53:11;;;;;;;11.30;7.10;;;24.00;99.90;;;;;;5050806;28;20454;-66
2021/07/08 08:55:39;;;;;;;5.40;4.90;;;24.40;99.90;;;;;;5051221;28;20527;-66
2021/07/08 08:58:08;;;;;;;8.73;5.93;;;24.80;99.90;;;;;;5050687;28;20483;-65
2021/07/08 09:00:42;;;;;;;6.20;5.60;;;25.00;99.90;;;;;;5049961;28;20466;-65
2021/07/08 09:03:12;;;;;;;6.80;6.10;;;24.90;99.90;;;;;;5050767;28;20526;-66
2021/07/08 09:05:41;;;;;;;6.40;5.80;;;25.00;99.90;;;;;;5050447;28;20460;-66
2021/07/08 09:08:20;;;;;;;6.90;6.23;;;25.10;99.90;;;;;;5050120;28;20515;-67
2021/07/08 09:10:50;;;;;;;7.00;5.90;;;25.20;99.90;;;;;;5049852;28;20481;-65
2021/07/08 09:13:18;;;;;;;6.97;5.67;;;24.50;99.90;;;;;;5050850;28;20451;-65
2021/07/08 09:15:45;;;;;;;7.07;5.70;;;24.50;99.90;;;;;;5050506;28;20537;-66
2021/07/08 09:18:14;;;;;;;7.13;5.03;;;24.60;99.90;;;;;;5050322;28;20459;-66
2021/07/08 09:20:43;;;;;;;5.27;4.77;;;24.60;99.90;;;;;;5049505;28;20446;-66
2021/07/08 09:23:16;;;;;;;5.40;4.90;;;24.70;99.90;;;;;;5050402;28;20456;-67
2021/07/08 09:25:44;;;;;;;5.50;4.90;;;24.70;99.90;;;;;;5050340;28;20497;-68
2021/07/08 09:28:14;;;;;;;8.93;4.50;;;24.90;99.90;;;;;;5049975;28;20527;-66
2021/07/08 09:30:42;;;;;;;8.30;4.40;;;25.30;99.90;;;;;;5049259;28;20452;-65
2021/07/08 09:33:44;;;;;;;4.70;4.20;;;25.40;99.90;;;;;;5050434;28;20555;-65
2021/07/08 09:36:15;;;;;;;6.70;5.17;;;25.30;99.90;;;;;;5047987;28;20572;-67
2021/07/08 09:38:44;;;;;;;4.60;4.13;;;25.30;99.90;;;;;;5050069;28;20448;-65
2021/07/08 09:41:17;;;;;;;6.27;5.67;;;25.30;99.90;;;;;;5049106;28;20547;-65
2021/07/08 09:43:45;;;;;;;6.03;4.90;;;25.10;99.90;;;;;;5050159;28;20428;-65
2021/07/08 09:46:14;;;;;;;5.57;4.73;;;25.10;99.90;;;;;;5049888;28;20567;-66
2021/07/08 09:49:02;;;;;;;7.93;5.07;;;25.10;99.90;;;;;;5050073;28;20527;-66
2021/07/08 09:51:31;;;;;;;6.13;4.77;;;24.50;99.90;;;;;;5049697;28;20490;-65
2021/07/08 09:54:05;;;;;;;5.97;4.83;;;24.30;99.90;;;;;;5049883;28;21010;-67
2021/07/08 09:56:45;;;;;;;6.07;4.90;;;24.30;99.90;;;;;;5049430;28;20521;-67
2021/07/08 09:59:13;;;;;;;7.53;5.30;;;24.40;99.90;;;;;;5049273;28;20456;-67
2021/07/08 10:01:40;;;;;;;6.23;5.63;;;24.20;99.90;;;;;;5049655;28;21156;-66
2021/07/08 10:04:07;;;;;;;8.13;5.13;;;24.10;99.90;;;;;;5049839;28;20558;-65
2021/07/08 10:06:36;;;;;;;5.27;4.67;;;24.20;99.90;;;;;;5049522;28;20475;-65
2021/07/08 10:09:04;;;;;;;7.40;5.00;;;24.20;99.90;;;;;;5049330;28;20535;-65
2021/07/08 10:11:31;;;;;;;6.10;5.50;;;24.00;99.90;;;;;;5049740;28;20487;-67
2021/07/08 10:14:00;;;;;;;8.60;6.03;;;23.80;99.90;;;;;;5049228;28;20539;-67
2021/07/08 10:16:28;;;;;;;6.87;5.30;;;23.70;99.90;;;;;;5049545;28;20525;-65
2021/07/08 10:18:59;;;;;;;6.10;4.83;;;23.70;99.90;;;;;;5049648;28;20463;-64
2021/07/08 10:21:29;;;;;;;6.27;5.10;;;23.80;99.90;;;;;;5049383;28;20551;-65
2021/07/08 10:23:58;;;;;;;6.33;4.63;;;23.90;99.90;;;;;;5049528;28;20435;-65
2021/07/08 10:26:26;;;;;;;6.97;5.03;;;24.30;99.90;;;;;;5049135;28;20938;-66
2021/07/08 10:28:54;;;;;;;8.17;5.07;;;24.70;99.90;;;;;;5049547;28;20448;-66
2021/07/08 10:31:23;;;;;;;13.60;5.50;;;24.80;99.90;;;;;;5048689;28;21175;-67
2021/07/08 10:34:10;;;;;;;5.10;4.60;;;24.80;99.90;;;;;;5049430;28;20539;-65
2021/07/08 10:36:38;;;;;;;6.37;5.07;;;25.00;99.90;;;;;;5049075;28;20448;-67
2021/07/08 10:39:07;;;;;;;6.50;5.50;;;25.00;99.90;;;;;;5048537;28;20463;-68
2021/07/08 10:41:44;;;;;;;6.63;4.80;;;25.30;99.90;;;;;;5049464;28;20460;-66
2021/07/08 10:44:40;;;;;;;6.77;4.60;;;25.50;99.90;;;;;;5049324;28;20460;-65
2021/07/08 10:47:27;;;;;;;6.80;5.30;;;26.10;99.90;;;;;;5049102;28;20452;-66
2021/07/08 10:49:54;;;;;;;6.20;4.17;;;26.60;99.90;;;;;;5048250;28;20976;-65
2021/07/08 10:52:46;;;;;;;5.60;4.10;;;26.90;99.90;;;;;;5049308;28;20570;-67
2021/07/08 10:55:35;;;;;;;5.80;3.80;;;27.20;99.90;;;;;;5049130;28;20440;-66
2021/07/08 10:58:02;;;;;;;7.30;3.80;;;27.50;99.90;;;;;;5048567;28;20448;-67
2021/07/08 11:00:47;;;;;;;5.37;4.10;;;27.30;99.90;;;;;;5048377;28;20443;-66
2021/07/08 11:03:46;;;;;;;7.77;3.73;;;27.10;99.90;;;;;;5049071;28;20533;-66
2021/07/08 11:06:19;;;;;;;4.77;3.73;;;27.00;99.90;;;;;;5048646;28;20455;-68
2021/07/08 11:08:59;;;;;;;4.77;3.90;;;27.00;99.90;;;;;;5049268;28;20448;-65
2021/07/08 11:12:02;;;;;;;4.57;3.90;;;26.60;99.90;;;;;;5049045;28;21182;-65
2021/07/08 11:14:33;;;;;;;6.67;3.43;;;26.10;99.90;;;;;;5049406;28;20447;-65
2021/07/08 11:17:14;;;;;;;3.93;3.50;;;25.70;99.90;;;;;;5048646;28;20452;-66
2021/07/08 11:19:45;;;;;;;5.27;4.10;;;25.50;99.90;;;;;;5048326;28;20430;-65
2021/07/08 11:22:14;;;;;;;5.00;4.07;;;25.30;99.90;;;;;;5048830;28;20510;-67
2021/07/08 11:24:50;;;;;;;6.73;3.30;;;25.20;99.90;;;;;;5049176;28;20902;-66
2021/07/08 11:27:32;;;;;;;4.70;3.73;;;25.30;99.90;;;;;;5051920;28;20915;-67
2021/07/08 11:30:03;;;;;;;4.37;3.80;;;25.50;99.90;;;;;;5051726;28;20443;-66
2021/07/08 11:32:38;;;;;;;6.80;4.37;;;25.60;99.90;;;;;;5052319;28;20479;-64
2021/07/08 11:35:06;;;;;;;7.80;3.80;;;25.50;99.90;;;;;;5052580;28;20435;-67
2021/07/08 11:37:39;;;;;;;4.93;4.43;;;25.60;99.90;;;;;;5047834;28;20452;-64
2021/07/08 11:40:08;;;;;;;5.70;4.30;;;25.70;99.90;;;;;;5038421;28;20517;-64
2021/07/08 11:42:38;;;;;;;6.20;4.23;;;25.70;99.90;;;;;;5049568;28;20463;-63
2021/07/08 11:45:10;;;;;;;4.43;3.80;;;25.60;99.90;;;;;;5037777;28;20448;-64
2021/07/08 11:47:42;;;;;;;5.30;4.10;;;25.60;99.90;;;;;;5036222;28;20433;-66
2021/07/08 11:50:20;;;;;;;6.80;4.40;;;25.80;99.90;;;;;;5039647;28;20433;-66
2021/07/08 11:52:48;;;;;;;6.93;2.77;;;25.80;99.90;;;;;;5049968;28;20915;-65
2021/07/08 11:55:15;;;;;;;3.80;2.50;;;25.30;99.90;;;;;;5034291;28;20448;-66
2021/07/08 11:57:54;;;;;;;4.07;2.53;;;24.20;99.90;;;;;;5028091;28;20447;-65
2021/07/08 12:00:31;;;;;;;4.60;2.40;;;23.20;99.90;;;;;;5030183;28;20433;-65
2021/07/08 12:02:59;;;;;;;6.00;1.80;;;22.60;99.90;;;;;;5031239;28;20532;-66
2021/07/08 12:05:27;;;;;;;3.37;2.13;;;22.10;99.90;;;;;;5033363;28;20962;-63
2021/07/08 12:07:57;;;;;;;4.00;2.00;;;21.70;99.90;;;;;;5048971;28;20539;-65
2021/07/08 12:10:29;;;;;;;5.57;2.33;;;21.30;99.90;;;;;;5037803;28;20901;-66
2021/07/08 12:12:58;;;;;;;4.03;2.13;;;21.20;99.90;;;;;;5034754;28;20575;-66
2021/07/08 12:15:26;;;;;;;4.70;2.50;;;21.00;99.90;;;;;;5032198;28;20453;-64
2021/07/08 12:17:54;;;;;;;4.10;2.27;;;20.90;99.90;;;;;;5049539;28;20440;-66
2021/07/08 12:20:21;;;;;;;3.77;1.93;;;20.70;99.90;;;;;;5048599;28;20543;-64
2021/07/08 12:22:59;;;;;;;8.13;2.70;;;20.60;99.90;;;;;;5049054;28;20559;-67
2021/07/08 12:25:27;;;;;;;3.33;2.00;;;20.80;99.90;;;;;;5049201;28;20820;-66
2021/07/08 12:27:56;;;;;;;3.70;2.20;;;20.90;99.90;;;;;;5049005;28;20535;-65
2021/07/08 12:30:26;;;;;;;9.37;3.80;;;21.10;99.90;;;;;;5048531;28;20443;-64
2021/07/08 12:33:07;;;;;;;4.20;2.07;;;21.40;99.90;;;;;;5049047;28;20483;-65
2021/07/08 12:35:52;;;;;;;7.93;2.90;;;21.60;99.90;;;;;;5048894;28;21029;-63
2021/07/08 12:38:19;;;;;;;5.27;2.23;;;21.50;99.90;;;;;;5049024;28;20451;-65
2021/07/08 12:40:49;;;;;;;3.17;2.20;;;21.50;99.90;;;;;;5047653;28;20462;-67
2021/07/08 12:43:18;;;;;;;4.90;2.33;;;21.70;99.90;;;;;;5049050;28;20448;-66
2021/07/08 12:45:47;;;;;;;6.97;2.10;;;21.60;99.90;;;;;;5048748;28;20444;-67
2021/07/08 12:48:16;;;;;;;3.37;2.30;;;21.60;99.90;;;;;;5048641;28;20448;-66
2021/07/08 12:50:46;;;;;;;3.77;2.60;;;21.50;99.90;;;;;;5048213;28;20440;-67
2021/07/08 12:53:15;;;;;;;3.20;2.40;;;21.50;99.90;;;;;;5048615;28;20494;-66
2021/07/08 12:55:44;;;;;;;3.40;2.47;;;21.50;99.90;;;;;;5049234;28;20444;-66
2021/07/08 12:58:15;;;;;;;4.07;2.43;;;21.60;99.90;;;;;;5047821;28;20483;-67